createdAt,value
2023-05-04T00:00:19.282Z,10.74
2023-05-04T00:01:18.134Z,10.71
2023-05-04T00:02:18.179Z,10.74
2023-05-04T00:03:18.241Z,10.72
2023-05-04T00:04:18.210Z,10.75
2023-05-04T00:05:18.087Z,10.69
2023-05-04T00:06:18.122Z,10.67
2023-05-04T00:07:18.063Z,10.67
2023-05-04T00:08:19.057Z,10.72
2023-05-04T00:09:19.028Z,10.78
2023-05-04T00:10:18.041Z,10.67
2023-05-04T00:11:18.060Z,10.61
2023-05-04T00:12:18.049Z,10.59
2023-05-04T00:13:18.000Z,10.61
2023-05-04T00:14:17.969Z,10.49
2023-05-04T00:15:18.008Z,10.53
2023-05-04T00:16:18.060Z,10.59
2023-05-04T00:17:17.969Z,10.57
2023-05-04T00:18:17.955Z,10.54
2023-05-04T00:19:17.916Z,10.53
2023-05-04T00:20:17.918Z,10.53
2023-05-04T00:21:17.900Z,10.54
2023-05-04T00:22:17.924Z,10.48
2023-05-04T00:23:17.910Z,10.56
2023-05-04T00:24:17.897Z,10.48
2023-05-04T00:25:17.868Z,10.53
2023-05-04T00:26:17.866Z,10.48
2023-05-04T00:27:17.840Z,10.54
2023-05-04T00:28:17.853Z,10.68
2023-05-04T00:29:17.841Z,10.61
2023-05-04T00:30:17.827Z,10.69
2023-05-04T00:31:18.845Z,10.59
2023-05-04T00:32:17.818Z,10.56
2023-05-04T00:33:17.767Z,10.53
2023-05-04T00:34:17.794Z,10.46
2023-05-04T00:35:17.747Z,10.46
2023-05-04T00:36:18.751Z,10.54
2023-05-04T00:37:17.722Z,10.51
2023-05-04T00:38:18.710Z,10.51
2023-05-04T00:39:18.762Z,10.53
2023-05-04T00:40:17.732Z,10.49
2023-05-04T00:41:18.694Z,10.49
2023-05-04T00:42:17.659Z,10.44
2023-05-04T00:43:17.668Z,10.41
2023-05-04T00:44:17.664Z,10.34
2023-05-04T00:45:18.680Z,10.38
2023-05-04T00:46:17.634Z,10.40
2023-05-04T00:47:18.671Z,10.35
2023-05-04T00:48:17.739Z,10.41
2023-05-04T00:49:17.603Z,10.34
2023-05-04T00:50:17.596Z,10.40
2023-05-04T00:51:18.609Z,10.25
2023-05-04T00:52:17.550Z,10.23
2023-05-04T00:53:18.599Z,10.26
2023-05-04T00:54:17.553Z,10.26
2023-05-04T00:55:17.549Z,10.31
2023-05-04T00:56:17.551Z,10.25
2023-05-04T00:57:17.533Z,10.28
2023-05-04T00:58:17.495Z,10.28
2023-05-04T00:59:17.510Z,10.31
2023-05-04T01:00:17.470Z,10.28
2023-05-04T01:01:17.512Z,10.19
2023-05-04T01:02:17.482Z,10.20
2023-05-04T01:03:17.553Z,10.28
2023-05-04T01:04:17.463Z,10.28
2023-05-04T01:05:17.454Z,10.37
2023-05-04T01:06:17.465Z,10.26
2023-05-04T01:07:17.407Z,10.22
2023-05-04T01:08:17.377Z,10.22
2023-05-04T01:09:17.389Z,10.25
2023-05-04T01:10:17.365Z,10.16
2023-05-04T01:11:17.407Z,10.16
2023-05-04T01:12:17.347Z,10.13
2023-05-04T01:13:17.449Z,10.16
2023-05-04T01:14:17.330Z,10.15
2023-05-04T01:15:17.324Z,10.12
2023-05-04T01:16:17.327Z,10.02
2023-05-04T01:17:18.305Z,10.04
2023-05-04T01:18:18.304Z,10.09
2023-05-04T01:19:17.311Z,10.07
2023-05-04T01:20:17.280Z,10.05
2023-05-04T01:21:17.272Z,10.01
2023-05-04T01:22:17.253Z,10.04
2023-05-04T01:23:17.223Z,9.98
2023-05-04T01:24:17.242Z,9.87
2023-05-04T01:25:17.236Z,9.91
2023-05-04T01:26:17.194Z,9.89
2023-05-04T01:27:17.195Z,9.87
2023-05-04T01:28:17.248Z,9.99
2023-05-04T01:29:17.166Z,9.98
2023-05-04T01:30:18.228Z,9.87
2023-05-04T01:31:18.181Z,9.89
2023-05-04T01:32:17.126Z,9.92
2023-05-04T01:33:17.127Z,9.87
2023-05-04T01:34:18.120Z,9.77
2023-05-04T01:35:17.138Z,9.79
2023-05-04T01:36:17.126Z,9.83
2023-05-04T01:37:17.072Z,9.80
2023-05-04T01:38:17.075Z,9.77
2023-05-04T01:39:18.071Z,9.89
2023-05-04T01:40:17.050Z,9.82
2023-05-04T01:41:18.050Z,9.92
2023-05-04T01:42:17.044Z,9.80
2023-05-04T01:43:17.004Z,9.87
2023-05-04T01:44:17.997Z,9.87
2023-05-04T01:45:17.024Z,9.87
2023-05-04T01:46:16.997Z,9.82
2023-05-04T01:47:16.982Z,9.86
2023-05-04T01:48:17.001Z,9.77
2023-05-04T01:49:16.967Z,9.77
2023-05-04T01:50:16.936Z,9.64
2023-05-04T01:51:16.957Z,9.72
2023-05-04T01:52:16.942Z,9.66
2023-05-04T01:53:16.919Z,9.68
2023-05-04T01:54:16.937Z,9.69
2023-05-04T01:55:16.942Z,9.69
2023-05-04T01:56:16.892Z,9.77
2023-05-04T01:57:16.855Z,9.76
2023-05-04T01:58:17.869Z,9.77
2023-05-04T01:59:16.832Z,9.79
2023-05-04T02:00:16.846Z,9.69
2023-05-04T02:01:16.922Z,9.79
2023-05-04T02:02:16.792Z,9.84
2023-05-04T02:03:16.857Z,9.80
2023-05-04T02:04:16.771Z,9.83
2023-05-04T02:05:17.817Z,9.74
2023-05-04T02:06:16.777Z,9.64
2023-05-04T02:07:16.735Z,9.66
2023-05-04T02:08:16.755Z,9.82
2023-05-04T02:09:16.775Z,9.69
2023-05-04T02:10:16.726Z,9.69
2023-05-04T02:11:16.731Z,9.68
2023-05-04T02:12:16.730Z,9.69
2023-05-04T02:13:16.812Z,9.68
2023-05-04T02:14:16.675Z,9.61
2023-05-04T02:15:17.689Z,9.59
2023-05-04T02:16:17.831Z,9.56
2023-05-04T02:17:16.658Z,9.54
2023-05-04T02:18:17.647Z,9.55
2023-05-04T02:19:16.639Z,9.59
2023-05-04T02:20:17.643Z,9.51
2023-05-04T02:21:16.649Z,9.56
2023-05-04T02:22:16.579Z,9.59
2023-05-04T02:23:17.608Z,9.51
2023-05-04T02:24:16.597Z,9.58
2023-05-04T02:25:17.566Z,9.62
2023-05-04T02:26:16.572Z,9.61
2023-05-04T02:27:16.522Z,9.47
2023-05-04T02:28:17.537Z,9.40
2023-05-04T02:29:16.526Z,9.32
2023-05-04T02:30:16.533Z,9.26
2023-05-04T02:31:16.544Z,9.14
2023-05-04T02:32:16.495Z,9.14
2023-05-04T02:33:16.492Z,9.11
2023-05-04T02:34:16.452Z,9.23
2023-05-04T02:35:16.476Z,9.22
2023-05-04T02:36:16.490Z,9.23
2023-05-04T02:37:16.473Z,9.22
2023-05-04T02:38:16.444Z,9.23
2023-05-04T02:39:16.400Z,9.26
2023-05-04T02:40:16.411Z,9.29
2023-05-04T02:41:16.398Z,9.31
2023-05-04T02:42:16.377Z,9.32
2023-05-04T02:43:16.365Z,9.31
2023-05-04T02:44:16.375Z,9.26
2023-05-04T02:45:16.367Z,9.36
2023-05-04T02:46:16.404Z,9.39
2023-05-04T02:47:16.313Z,9.40
2023-05-04T02:48:16.357Z,9.40
2023-05-04T02:49:17.304Z,9.29
2023-05-04T02:50:17.285Z,9.28
2023-05-04T02:51:16.263Z,9.31
2023-05-04T02:52:16.277Z,9.40
2023-05-04T02:53:16.241Z,9.31
2023-05-04T02:54:16.294Z,9.26
2023-05-04T02:55:16.237Z,9.43
2023-05-04T02:56:16.218Z,9.44
2023-05-04T02:57:16.221Z,9.43
2023-05-04T02:58:16.205Z,9.44
2023-05-04T02:59:16.181Z,9.41
2023-05-04T03:00:16.209Z,9.44
2023-05-04T03:01:16.198Z,9.36
2023-05-04T03:02:16.176Z,9.29
2023-05-04T03:03:16.160Z,9.39
2023-05-04T03:04:16.149Z,9.41
2023-05-04T03:05:16.162Z,9.31
2023-05-04T03:06:16.096Z,9.25
2023-05-04T03:07:16.106Z,9.22
2023-05-04T03:08:16.113Z,9.28
2023-05-04T03:09:16.083Z,9.11
2023-05-04T03:10:16.093Z,9.13
2023-05-04T03:11:16.053Z,9.11
2023-05-04T03:12:16.079Z,9.08
2023-05-04T03:13:16.080Z,9.08
2023-05-04T03:14:16.016Z,9.08
2023-05-04T03:15:16.051Z,9.11
2023-05-04T03:16:17.021Z,9.18
2023-05-04T03:17:16.024Z,9.23
2023-05-04T03:18:16.986Z,9.28
2023-05-04T03:19:15.995Z,9.23
2023-05-04T03:20:16.980Z,9.13
2023-05-04T03:21:16.980Z,9.10
2023-05-04T03:22:15.958Z,8.97
2023-05-04T03:23:16.932Z,9.06
2023-05-04T03:24:15.916Z,9.00
2023-05-04T03:25:15.933Z,9.03
2023-05-04T03:26:15.902Z,8.97
2023-05-04T03:27:15.906Z,9.02
2023-05-04T03:28:15.904Z,9.16
2023-05-04T03:29:15.870Z,9.06
2023-05-04T03:30:23.500Z,9.23
2023-05-04T03:31:15.857Z,9.06
2023-05-04T03:32:15.904Z,9.19
2023-05-04T03:33:15.840Z,9.08
2023-05-04T03:34:15.834Z,9.06
2023-05-04T03:35:20.950Z,9.13
2023-05-04T03:36:16.799Z,9.08
2023-05-04T03:37:16.784Z,9.04
2023-05-04T03:38:16.761Z,9.08
2023-05-04T03:39:15.773Z,9.00
2023-05-04T03:40:15.742Z,8.97
2023-05-04T03:41:15.767Z,9.03
2023-05-04T03:42:16.724Z,8.95
2023-05-04T03:43:15.716Z,8.88
2023-05-04T03:44:16.721Z,8.92
2023-05-04T03:45:15.717Z,8.94
2023-05-04T03:46:15.721Z,8.87
2023-05-04T03:47:15.687Z,8.92
2023-05-04T03:48:15.671Z,8.99
2023-05-04T03:49:15.686Z,8.95
2023-05-04T03:50:15.641Z,8.88
2023-05-04T03:51:16.642Z,8.91
2023-05-04T03:52:16.618Z,8.82
2023-05-04T03:53:15.597Z,8.85
2023-05-04T03:54:15.608Z,8.82
2023-05-04T03:55:15.621Z,8.88
2023-05-04T03:56:15.588Z,8.84
2023-05-04T03:57:15.594Z,8.97
2023-05-04T03:58:16.558Z,8.95
2023-05-04T03:59:15.541Z,8.89
2023-05-04T04:00:15.566Z,8.94
2023-05-04T04:01:15.554Z,9.04
2023-05-04T04:02:16.569Z,8.95
2023-05-04T04:03:15.699Z,8.97
2023-05-04T04:04:15.492Z,9.00
2023-05-04T04:05:15.485Z,9.02
2023-05-04T04:06:15.470Z,9.00
2023-05-04T04:07:16.471Z,9.06
2023-05-04T04:08:15.455Z,9.02
2023-05-04T04:09:15.448Z,9.03
2023-05-04T04:10:15.435Z,9.03
2023-05-04T04:11:15.403Z,9.02
2023-05-04T04:12:15.410Z,8.92
2023-05-04T04:13:16.501Z,8.87
2023-05-04T04:14:15.382Z,8.92
2023-05-04T04:15:15.364Z,8.91
2023-05-04T04:16:15.481Z,8.89
2023-05-04T04:17:15.376Z,8.92
2023-05-04T04:18:15.371Z,8.94
2023-05-04T04:19:16.360Z,8.92
2023-05-04T04:20:16.315Z,8.94
2023-05-04T04:21:15.349Z,9.03
2023-05-04T04:22:15.275Z,9.08
2023-05-04T04:23:16.298Z,9.10
2023-05-04T04:24:16.283Z,9.23
2023-05-04T04:25:15.267Z,9.23
2023-05-04T04:26:16.242Z,9.29
2023-05-04T04:27:15.234Z,9.29
2023-05-04T04:28:15.223Z,9.26
2023-05-04T04:29:15.244Z,9.41
2023-05-04T04:30:15.285Z,9.41
2023-05-04T04:31:15.187Z,9.44
2023-05-04T04:32:15.210Z,9.44
2023-05-04T04:33:15.181Z,9.47
2023-05-04T04:34:15.208Z,9.48
2023-05-04T04:35:15.156Z,9.58
2023-05-04T04:36:15.128Z,9.43
2023-05-04T04:37:16.125Z,9.44
2023-05-04T04:38:15.137Z,9.47
2023-05-04T04:39:15.118Z,9.46
2023-05-04T04:40:15.152Z,9.58
2023-05-04T04:41:15.085Z,9.62
2023-05-04T04:42:15.067Z,9.56
2023-05-04T04:43:16.066Z,9.59
2023-05-04T04:44:15.082Z,9.61
2023-05-04T04:45:15.050Z,9.59
2023-05-04T04:46:15.068Z,9.69
2023-05-04T04:47:15.037Z,9.68
2023-05-04T04:48:15.023Z,9.83
2023-05-04T04:49:15.011Z,9.89
2023-05-04T04:50:14.975Z,9.84
2023-05-04T04:51:14.964Z,9.95
2023-05-04T04:52:15.634Z,9.98
2023-05-04T04:53:15.960Z,10.05
2023-05-04T04:54:14.944Z,10.15
2023-05-04T04:55:14.952Z,10.33
2023-05-04T04:56:14.945Z,10.33
2023-05-04T04:57:14.923Z,10.37
2023-05-04T04:58:14.908Z,10.46
2023-05-04T04:59:14.877Z,10.48
2023-05-04T05:00:14.891Z,10.44
2023-05-04T05:01:14.865Z,10.44
2023-05-04T05:02:14.881Z,10.34
2023-05-04T05:03:15.888Z,10.46
2023-05-04T05:04:14.863Z,10.38
2023-05-04T05:05:14.905Z,10.48
2023-05-04T05:06:14.824Z,10.53
2023-05-04T05:07:14.825Z,10.59
2023-05-04T05:08:14.773Z,10.67
2023-05-04T05:09:14.804Z,10.67
2023-05-04T05:10:14.792Z,10.64
2023-05-04T05:11:15.750Z,10.68
2023-05-04T05:12:14.773Z,10.71
2023-05-04T05:13:14.933Z,10.78
2023-05-04T05:14:14.728Z,10.84
2023-05-04T05:15:14.708Z,10.87
2023-05-04T05:16:14.771Z,10.94
2023-05-04T05:17:14.701Z,11.07
2023-05-04T05:18:14.701Z,11.05
2023-05-04T05:19:14.662Z,11.22
2023-05-04T05:20:15.782Z,11.25
2023-05-04T05:21:14.652Z,11.43
2023-05-04T05:22:14.650Z,11.50
2023-05-04T05:23:14.619Z,11.68
2023-05-04T05:24:15.645Z,11.65
2023-05-04T05:25:14.596Z,11.65
2023-05-04T05:26:14.588Z,11.81
2023-05-04T05:27:14.603Z,11.90
2023-05-04T05:28:14.573Z,12.00
2023-05-04T05:29:14.584Z,12.10
2023-05-04T05:30:14.581Z,12.15
2023-05-04T05:31:15.597Z,12.21
2023-05-04T05:32:14.534Z,12.28
2023-05-04T05:33:14.601Z,12.36
2023-05-04T05:34:14.523Z,12.36
2023-05-04T05:35:15.501Z,12.39
2023-05-04T05:36:14.669Z,12.46
2023-05-04T05:37:14.517Z,12.47
2023-05-04T05:38:15.469Z,12.62
2023-05-04T05:39:14.473Z,12.57
2023-05-04T05:40:14.464Z,12.58
2023-05-04T05:41:14.441Z,12.64
2023-05-04T05:42:14.414Z,12.80
2023-05-04T05:43:14.398Z,12.83
2023-05-04T05:44:14.407Z,12.91
2023-05-04T05:45:14.399Z,12.98
2023-05-04T05:46:15.437Z,13.08
2023-05-04T05:47:14.368Z,13.03
2023-05-04T05:48:14.334Z,13.19
2023-05-04T05:49:14.351Z,13.35
2023-05-04T05:50:14.347Z,13.39
2023-05-04T05:51:14.352Z,13.44
2023-05-04T05:52:15.311Z,13.54
2023-05-04T05:53:14.327Z,13.65
2023-05-04T05:54:14.288Z,13.74
2023-05-04T05:55:14.274Z,13.72
2023-05-04T05:56:15.276Z,13.87
2023-05-04T05:57:14.244Z,13.93
2023-05-04T05:58:14.250Z,13.97
2023-05-04T05:59:14.252Z,14.04
2023-05-04T06:00:14.225Z,14.08
2023-05-04T06:01:15.245Z,14.05
2023-05-04T06:02:14.217Z,14.03
2023-05-04T06:03:14.369Z,14.11
2023-05-04T06:04:14.405Z,14.11
2023-05-04T06:05:14.158Z,14.03
2023-05-04T06:06:14.146Z,14.10
2023-05-04T06:07:14.152Z,14.18
2023-05-04T06:08:14.152Z,14.29
2023-05-04T06:09:14.140Z,14.36
2023-05-04T06:10:14.115Z,14.44
2023-05-04T06:11:14.088Z,14.50
2023-05-04T06:12:14.082Z,14.53
2023-05-04T06:13:14.121Z,14.45
2023-05-04T06:14:14.068Z,14.47
2023-05-04T06:15:14.074Z,14.55
2023-05-04T06:16:14.145Z,14.50
2023-05-04T06:17:15.023Z,14.60
2023-05-04T06:18:14.038Z,14.68
2023-05-04T06:19:14.020Z,14.79
2023-05-04T06:20:13.986Z,14.63
2023-05-04T06:21:14.039Z,14.63
2023-05-04T06:22:14.977Z,14.72
2023-05-04T06:23:13.967Z,14.82
2023-05-04T06:24:13.983Z,14.89
2023-05-04T06:25:13.981Z,14.97
2023-05-04T06:26:13.926Z,14.97
2023-05-04T06:27:14.932Z,15.03
2023-05-04T06:28:13.931Z,15.04
2023-05-04T06:29:13.934Z,15.14
2023-05-04T06:30:13.901Z,15.14
2023-05-04T06:31:13.925Z,15.03
2023-05-04T06:32:14.010Z,15.02
2023-05-04T06:33:13.886Z,15.17
2023-05-04T06:34:13.842Z,15.24
2023-05-04T06:35:13.844Z,15.27
2023-05-04T06:36:13.892Z,15.19
2023-05-04T06:37:15.541Z,15.35
2023-05-04T06:38:13.808Z,15.36
2023-05-04T06:39:13.826Z,15.36
2023-05-04T06:40:14.024Z,15.43
2023-05-04T06:41:13.778Z,15.55
2023-05-04T06:42:13.789Z,15.59
2023-05-04T06:43:14.757Z,15.64
2023-05-04T06:44:13.743Z,15.68
2023-05-04T06:45:13.732Z,15.67
2023-05-04T06:46:13.760Z,15.82
2023-05-04T06:47:13.709Z,15.84
2023-05-04T06:48:13.707Z,15.92
2023-05-04T06:49:13.687Z,15.82
2023-05-04T06:50:13.668Z,15.84
2023-05-04T06:51:13.650Z,15.76
2023-05-04T06:52:14.649Z,15.73
2023-05-04T06:53:13.625Z,15.83
2023-05-04T06:54:13.652Z,16.00
2023-05-04T06:55:13.614Z,15.97
2023-05-04T06:56:13.632Z,16.00
2023-05-04T06:57:13.587Z,15.95
2023-05-04T06:58:14.588Z,16.10
2023-05-04T06:59:13.590Z,16.16
2023-05-04T07:00:13.544Z,16.15
2023-05-04T07:01:16.872Z,16.24
2023-05-04T07:02:13.529Z,16.16
2023-05-04T07:03:13.563Z,16.35
2023-05-04T07:04:13.504Z,16.32
2023-05-04T07:05:13.506Z,16.46
2023-05-04T07:06:13.482Z,16.43
2023-05-04T07:07:13.532Z,16.54
2023-05-04T07:08:13.500Z,16.50
2023-05-04T07:09:13.456Z,16.51
2023-05-04T07:10:13.461Z,16.51
2023-05-04T07:11:14.436Z,16.58
2023-05-04T07:12:13.436Z,16.74
2023-05-04T07:13:13.546Z,16.81
2023-05-04T07:14:14.388Z,16.96
2023-05-04T07:15:13.392Z,17.01
2023-05-04T07:16:13.398Z,17.02
2023-05-04T07:17:13.393Z,17.06
2023-05-04T07:18:13.422Z,17.01
2023-05-04T07:19:14.352Z,17.05
2023-05-04T07:20:14.335Z,17.05
2023-05-04T07:22:13.348Z,17.02
2023-05-04T07:23:13.331Z,17.04
2023-05-04T07:24:14.325Z,17.04
2023-05-04T07:25:13.275Z,16.97
2023-05-04T07:26:13.263Z,16.97
2023-05-04T07:27:13.255Z,16.90
2023-05-04T07:28:13.287Z,16.94
2023-05-04T07:29:13.261Z,16.99
2023-05-04T07:30:13.236Z,17.05
2023-05-04T07:31:13.210Z,17.05
2023-05-04T07:32:13.343Z,17.08
2023-05-04T07:33:13.255Z,17.14
2023-05-04T07:34:13.178Z,17.27
2023-05-04T07:35:14.179Z,17.39
2023-05-04T07:36:13.167Z,17.44
2023-05-04T07:37:13.159Z,17.29
2023-05-04T07:38:13.123Z,17.38
2023-05-04T07:39:13.105Z,17.52
2023-05-04T07:40:13.124Z,17.57
2023-05-04T07:41:14.103Z,17.76
2023-05-04T07:42:14.146Z,17.82
2023-05-04T07:43:14.071Z,17.89
2023-05-04T07:44:13.104Z,17.85
2023-05-04T07:45:13.068Z,17.86
2023-05-04T07:46:13.140Z,17.87
2023-05-04T07:47:13.026Z,17.90
2023-05-04T07:48:13.091Z,18.03
2023-05-04T07:49:12.996Z,18.05
2023-05-04T07:50:12.998Z,18.07
2023-05-04T07:51:12.987Z,18.11
2023-05-04T07:52:13.991Z,18.20
2023-05-04T07:53:12.991Z,18.23
2023-05-04T07:54:12.971Z,18.29
2023-05-04T07:55:12.947Z,18.34
2023-05-04T07:56:12.993Z,18.41
2023-05-04T07:57:12.947Z,18.38
2023-05-04T07:58:12.903Z,18.49
2023-05-04T07:59:13.926Z,18.50
2023-05-04T08:00:12.942Z,18.43
2023-05-04T08:01:12.901Z,18.43
2023-05-04T08:02:13.886Z,18.35
2023-05-04T08:03:13.883Z,18.40
2023-05-04T08:04:12.859Z,18.37
2023-05-04T08:05:12.873Z,18.29
2023-05-04T08:06:12.840Z,18.23
2023-05-04T08:07:12.812Z,18.35
2023-05-04T08:08:12.793Z,18.37
2023-05-04T08:09:12.787Z,18.19
2023-05-04T08:10:13.796Z,18.10
2023-05-04T08:11:20.094Z,18.04
2023-05-04T08:12:13.765Z,18.03
2023-05-04T08:13:12.826Z,18.13
2023-05-04T08:14:12.763Z,18.26
2023-05-04T08:15:12.747Z,18.05
2023-05-04T08:16:12.840Z,18.13
2023-05-04T08:17:12.700Z,18.22
2023-05-04T08:18:12.961Z,18.13
2023-05-04T08:19:12.683Z,18.08
2023-05-04T08:20:12.730Z,18.15
2023-05-04T08:21:13.678Z,18.28
2023-05-04T08:22:13.692Z,18.25
2023-05-04T08:23:12.658Z,18.22
2023-05-04T08:24:13.638Z,18.35
2023-05-04T08:25:12.624Z,18.37
2023-05-04T08:26:12.626Z,18.33
2023-05-04T08:27:12.633Z,18.37
2023-05-04T08:28:12.612Z,18.52
2023-05-04T08:29:12.566Z,18.65
2023-05-04T08:30:12.570Z,18.59
2023-05-04T08:31:12.574Z,18.75
2023-05-04T08:32:12.558Z,18.78
2023-05-04T08:33:12.601Z,18.88
2023-05-04T08:34:12.534Z,18.88
2023-05-04T08:35:12.538Z,18.96
2023-05-04T08:36:12.521Z,18.86
2023-05-04T08:37:12.483Z,18.73
2023-05-04T08:38:12.501Z,18.80
2023-05-04T08:39:12.474Z,18.84
2023-05-04T08:40:12.476Z,18.78
2023-05-04T08:41:13.482Z,18.75
2023-05-04T08:42:12.452Z,18.81
2023-05-04T08:43:12.428Z,18.73
2023-05-04T08:44:12.414Z,18.73
2023-05-04T08:45:12.405Z,18.80
2023-05-04T08:46:12.455Z,18.83
2023-05-04T08:47:12.370Z,18.86
2023-05-04T08:48:12.376Z,18.90
2023-05-04T08:49:12.367Z,18.78
2023-05-04T08:50:12.339Z,18.83
2023-05-04T08:51:12.376Z,18.93
2023-05-04T08:52:12.317Z,18.98
2023-05-04T08:53:12.341Z,18.99
2023-05-04T08:54:12.300Z,19.15
2023-05-04T08:55:12.297Z,19.21
2023-05-04T08:56:12.264Z,19.29
2023-05-04T08:57:13.306Z,19.36
2023-05-04T08:58:12.274Z,19.44
2023-05-04T08:59:13.274Z,19.31
2023-05-04T09:00:12.228Z,19.41
2023-05-04T09:01:12.374Z,19.54
2023-05-04T09:02:13.330Z,19.64
2023-05-04T09:03:12.268Z,19.64
2023-05-04T09:04:12.209Z,19.70
2023-05-04T09:05:12.166Z,19.58
2023-05-04T09:06:12.270Z,19.64
2023-05-04T09:07:12.170Z,19.63
2023-05-04T09:08:12.152Z,19.82
2023-05-04T09:09:12.152Z,19.81
2023-05-04T09:10:13.161Z,19.85
2023-05-04T09:11:12.113Z,19.84
2023-05-04T09:12:12.095Z,19.85
2023-05-04T09:13:12.191Z,19.88
2023-05-04T09:14:12.104Z,19.92
2023-05-04T09:15:12.083Z,19.94
2023-05-04T09:16:14.600Z,19.89
2023-05-04T09:17:12.252Z,20.00
2023-05-04T09:18:12.066Z,19.99
2023-05-04T09:19:12.043Z,20.00
2023-05-04T09:20:13.044Z,19.96
2023-05-04T09:21:12.130Z,20.04
2023-05-04T09:22:12.009Z,20.03
2023-05-04T09:23:12.024Z,20.07
2023-05-04T09:24:11.985Z,19.99
2023-05-04T09:25:11.957Z,19.96
2023-05-04T09:26:11.980Z,19.84
2023-05-04T09:27:11.986Z,19.99
2023-05-04T09:28:11.918Z,20.00
2023-05-04T09:29:11.946Z,19.86
2023-05-04T09:30:11.917Z,19.77
2023-05-04T09:31:12.045Z,19.66
2023-05-04T09:32:11.902Z,19.62
2023-05-04T09:33:12.858Z,19.76
2023-05-04T09:34:11.908Z,19.85
2023-05-04T09:35:18.700Z,19.92
2023-05-04T09:36:12.977Z,20.02
2023-05-04T09:37:11.826Z,20.19
2023-05-04T09:38:11.839Z,20.32
2023-05-04T09:39:11.813Z,20.14
2023-05-04T09:40:11.840Z,20.34
2023-05-04T09:41:11.843Z,20.37
2023-05-04T09:42:11.794Z,20.41
2023-05-04T09:43:11.781Z,20.50
2023-05-04T09:44:11.765Z,20.59
2023-05-04T09:45:12.755Z,20.56
2023-05-04T09:46:11.781Z,20.65
2023-05-04T09:47:11.726Z,20.70
2023-05-04T09:48:11.732Z,20.80
2023-05-04T09:49:11.697Z,20.90
2023-05-04T09:50:12.690Z,20.41
2023-05-04T09:51:11.677Z,20.48
2023-05-04T09:52:11.686Z,20.52
2023-05-04T09:53:11.676Z,20.78
2023-05-04T09:54:12.661Z,20.78
2023-05-04T09:55:12.663Z,20.93
2023-05-04T09:56:11.640Z,21.02
2023-05-04T09:57:11.649Z,21.14
2023-05-04T09:58:11.593Z,21.18
2023-05-04T09:59:11.617Z,21.03
2023-05-04T10:00:11.597Z,21.05
2023-05-04T10:01:12.598Z,20.93
2023-05-04T10:02:21.822Z,20.88
2023-05-04T10:03:12.603Z,20.96
2023-05-04T10:04:11.529Z,20.96
2023-05-04T10:05:11.607Z,20.92
2023-05-04T10:06:11.519Z,20.85
2023-05-04T10:07:11.514Z,20.95
2023-05-04T10:08:11.507Z,20.92
2023-05-04T10:09:11.493Z,20.85
2023-05-04T10:10:11.462Z,20.80
2023-05-04T10:11:12.465Z,20.88
2023-05-04T10:12:11.455Z,20.84
2023-05-04T10:13:11.468Z,20.87
2023-05-04T10:14:11.472Z,20.97
2023-05-04T10:15:11.422Z,21.06
2023-05-04T10:16:11.455Z,21.17
2023-05-04T10:17:13.755Z,21.12
2023-05-04T10:18:11.394Z,21.30
2023-05-04T10:19:11.393Z,21.32
2023-05-04T10:20:12.384Z,21.36
2023-05-04T10:21:11.338Z,21.35
2023-05-04T10:22:11.349Z,21.17
2023-05-04T10:23:11.320Z,21.03
2023-05-04T10:24:11.343Z,21.07
2023-05-04T10:25:11.332Z,20.82
2023-05-04T10:26:11.342Z,20.92
2023-05-04T10:27:11.278Z,21.07
2023-05-04T10:28:11.258Z,21.18
2023-05-04T10:29:11.271Z,21.22
2023-05-04T10:30:11.263Z,21.39
2023-05-04T10:31:11.296Z,21.51
2023-05-04T10:32:11.269Z,21.60
2023-05-04T10:33:11.374Z,21.35
2023-05-04T10:34:11.208Z,21.24
2023-05-04T10:35:11.195Z,21.00
2023-05-04T10:36:11.212Z,21.02
2023-05-04T10:37:11.169Z,21.14
2023-05-04T10:38:11.172Z,21.25
2023-05-04T10:39:11.158Z,21.03
2023-05-04T10:40:11.169Z,21.06
2023-05-04T10:41:11.131Z,21.05
2023-05-04T10:42:11.119Z,21.06
2023-05-04T10:43:11.095Z,21.15
2023-05-04T10:44:11.107Z,21.11
2023-05-04T10:45:11.106Z,21.27
2023-05-04T10:46:11.089Z,21.46
2023-05-04T10:47:11.076Z,21.36
2023-05-04T10:48:11.065Z,21.20
2023-05-04T10:49:11.033Z,21.17
2023-05-04T10:50:11.023Z,21.02
2023-05-04T10:51:11.024Z,20.93
2023-05-04T10:52:11.004Z,20.96
2023-05-04T10:53:11.003Z,20.95
2023-05-04T10:54:10.995Z,21.03
2023-05-04T10:55:10.952Z,21.03
2023-05-04T10:56:11.048Z,21.15
2023-05-04T10:57:10.980Z,21.39
2023-05-04T10:58:10.933Z,21.52
2023-05-04T10:59:10.976Z,21.69
2023-05-04T11:00:10.958Z,21.77
2023-05-04T11:01:11.960Z,21.93
2023-05-04T11:02:10.927Z,21.95
2023-05-04T11:03:10.928Z,21.93
2023-05-04T11:04:10.878Z,22.00
2023-05-04T11:05:10.885Z,22.15
2023-05-04T11:06:10.854Z,22.08
2023-05-04T11:07:10.841Z,21.79
2023-05-04T11:08:10.874Z,21.67
2023-05-04T11:09:11.821Z,21.77
2023-05-04T11:10:10.824Z,21.70
2023-05-04T11:11:11.791Z,21.69
2023-05-04T11:12:11.011Z,21.36
2023-05-04T11:13:10.811Z,21.35
2023-05-04T11:14:10.768Z,21.60
2023-05-04T11:15:10.758Z,21.66
2023-05-04T11:16:10.794Z,21.57
2023-05-04T11:17:26.556Z,21.46
2023-05-04T11:18:11.791Z,21.48
2023-05-04T11:19:10.723Z,21.37
2023-05-04T11:20:10.675Z,21.43
2023-05-04T11:21:10.707Z,21.48
2023-05-04T11:22:10.703Z,21.52
2023-05-04T11:23:10.664Z,21.66
2023-05-04T11:24:10.657Z,21.77
2023-05-04T11:25:10.635Z,21.72
2023-05-04T11:26:10.634Z,21.93
2023-05-04T11:27:10.637Z,22.10
2023-05-04T11:28:10.640Z,21.77
2023-05-04T11:29:10.588Z,21.64
2023-05-04T11:30:10.599Z,21.73
2023-05-04T11:31:10.601Z,21.79
2023-05-04T11:32:11.584Z,21.99
2023-05-04T11:33:10.578Z,22.04
2023-05-04T11:34:11.593Z,22.17
2023-05-04T11:35:10.568Z,21.93
2023-05-04T11:36:10.530Z,21.93
2023-05-04T11:37:10.515Z,21.88
2023-05-04T11:38:10.490Z,21.82
2023-05-04T11:39:11.521Z,21.92
2023-05-04T11:40:10.500Z,21.96
2023-05-04T11:41:10.472Z,22.13
2023-05-04T11:42:10.488Z,22.11
2023-05-04T11:43:10.474Z,22.08
2023-05-04T11:44:10.538Z,22.15
2023-05-04T11:45:10.456Z,22.13
2023-05-04T11:46:10.487Z,22.10
2023-05-04T11:47:11.414Z,21.98
2023-05-04T11:48:10.422Z,21.98
2023-05-04T11:49:11.378Z,21.99
2023-05-04T11:50:10.373Z,22.13
2023-05-04T11:51:10.383Z,22.17
2023-05-04T11:52:10.376Z,22.17
2023-05-04T11:53:10.338Z,22.30
2023-05-04T11:54:10.339Z,22.38
2023-05-04T11:55:10.313Z,22.53
2023-05-04T11:56:10.350Z,22.43
2023-05-04T11:57:11.281Z,22.39
2023-05-04T11:58:10.306Z,22.38
2023-05-04T11:59:10.308Z,22.47
2023-05-04T12:00:11.354Z,22.57
2023-05-04T12:01:10.270Z,22.60
2023-05-04T12:02:10.340Z,22.57
2023-05-04T12:03:11.266Z,22.55
2023-05-04T12:04:10.381Z,22.38
2023-05-04T12:05:10.251Z,22.29
2023-05-04T12:06:10.182Z,22.36
2023-05-04T12:07:10.250Z,22.39
2023-05-04T12:08:11.196Z,22.26
2023-05-04T12:09:10.183Z,22.30
2023-05-04T12:10:10.130Z,22.36
2023-05-04T12:11:10.182Z,22.33
2023-05-04T12:12:10.151Z,22.33
2023-05-04T12:13:10.148Z,22.22
2023-05-04T12:14:10.171Z,22.23
2023-05-04T12:15:11.102Z,22.25
2023-05-04T12:16:10.203Z,22.07
2023-05-04T12:17:10.085Z,22.11
2023-05-04T12:18:10.118Z,22.18
2023-05-04T12:19:10.063Z,22.35
2023-05-04T12:20:11.098Z,22.06
2023-05-04T12:21:10.015Z,22.02
2023-05-04T12:22:11.020Z,21.92
2023-05-04T12:23:10.080Z,21.92
2023-05-04T12:24:09.985Z,21.92
2023-05-04T12:25:09.997Z,21.99
2023-05-04T12:26:09.977Z,21.82
2023-05-04T12:27:09.954Z,21.89
2023-05-04T12:28:09.953Z,21.95
2023-05-04T12:29:10.933Z,21.92
2023-05-04T12:30:10.969Z,21.83
2023-05-04T12:31:11.103Z,21.96
2023-05-04T12:32:10.101Z,21.96
2023-05-04T12:33:09.931Z,22.02
2023-05-04T12:34:09.872Z,22.02
2023-05-04T12:35:09.904Z,22.02
2023-05-04T12:36:09.882Z,22.11
2023-05-04T12:37:09.867Z,22.25
2023-05-04T12:38:09.836Z,22.22
2023-05-04T12:39:10.863Z,22.35
2023-05-04T12:40:20.987Z,22.41
2023-05-04T12:41:10.832Z,22.45
2023-05-04T12:42:09.792Z,22.50
2023-05-04T12:43:09.799Z,22.25
2023-05-04T12:44:10.789Z,22.28
2023-05-04T12:45:09.765Z,22.35
2023-05-04T12:46:09.947Z,22.36
2023-05-04T12:47:09.786Z,22.38
2023-05-04T12:48:09.761Z,22.50
2023-05-04T12:49:09.733Z,22.45
2023-05-04T12:50:09.898Z,22.51
2023-05-04T12:51:09.726Z,22.44
2023-05-04T12:52:09.710Z,22.51
2023-05-04T12:53:09.697Z,22.60
2023-05-04T12:54:09.709Z,22.47
2023-05-04T12:55:10.650Z,22.48
2023-05-04T12:56:09.634Z,22.39
2023-05-04T12:57:09.647Z,22.44
2023-05-04T12:58:09.614Z,22.47
2023-05-04T12:59:09.814Z,22.51
2023-05-04T13:00:09.624Z,22.48